sensor_id;sensor_type;location;lat;lon;timestamp;pressure;altitude;pressure_sealevel;temperature;humidity
69173;BME280;56280;49.662;8.408;2023-03-15T00:00:45;100404.31;;;4.95;71.55
69173;BME280;56280;49.662;8.408;2023-03-15T00:03:11;100416.59;;;5.10;71.17
69173;BME280;56280;49.662;8.408;2023-03-15T00:05:41;100448.91;;;4.98;71.30
69173;BME280;56280;49.662;8.408;2023-03-15T00:08:06;100430.72;;;4.93;71.49
69173;BME280;56280;49.662;8.408;2023-03-15T00:10:31;100430.56;;;4.97;71.03
69173;BME280;56280;49.662;8.408;2023-03-15T00:12:57;100437.22;;;4.88;70.70
69173;BME280;56280;49.662;8.408;2023-03-15T00:15:22;100452.41;;;4.83;71.38
69173;BME280;56280;49.662;8.408;2023-03-15T00:17:47;100457.38;;;4.57;71.52
69173;BME280;56280;49.662;8.408;2023-03-15T00:20:13;100471.47;;;4.56;71.88
69173;BME280;56280;49.662;8.408;2023-03-15T00:22:43;100451.19;;;4.42;71.99
69173;BME280;56280;49.662;8.408;2023-03-15T00:25:08;100476.66;;;4.42;72.53
69173;BME280;56280;49.662;8.408;2023-03-15T00:27:34;100461.13;;;4.37;72.45
69173;BME280;56280;49.662;8.408;2023-03-15T00:29:59;100478.50;;;4.55;72.20
69173;BME280;56280;49.662;8.408;2023-03-15T00:32:24;100484.56;;;4.57;72.52
69173;BME280;56280;49.662;8.408;2023-03-15T00:34:50;100472.66;;;4.50;72.57
69173;BME280;56280;49.662;8.408;2023-03-15T00:37:19;100470.03;;;4.34;72.13
69173;BME280;56280;49.662;8.408;2023-03-15T00:39:45;100496.25;;;4.36;72.68
69173;BME280;56280;49.662;8.408;2023-03-15T00:42:12;100485.91;;;4.33;72.77
69173;BME280;56280;49.662;8.408;2023-03-15T00:44:41;100480.13;;;4.26;71.93
69173;BME280;56280;49.662;8.408;2023-03-15T00:47:07;100509.41;;;4.36;72.25
69173;BME280;56280;49.662;8.408;2023-03-15T00:49:32;100509.66;;;4.31;71.94
69173;BME280;56280;49.662;8.408;2023-03-15T00:51:58;100509.97;;;4.09;73.02
69173;BME280;56280;49.662;8.408;2023-03-15T00:54:23;100513.88;;;4.18;72.67
69173;BME280;56280;49.662;8.408;2023-03-15T00:56:49;100506.38;;;3.94;73.16
69173;BME280;56280;49.662;8.408;2023-03-15T00:59:14;100505.72;;;3.73;74.41
69173;BME280;56280;49.662;8.408;2023-03-15T01:01:39;100498.88;;;3.53;75.58
69173;BME280;56280;49.662;8.408;2023-03-15T01:04:11;100515.09;;;3.61;75.02
69173;BME280;56280;49.662;8.408;2023-03-15T01:06:37;100507.69;;;3.52;75.92
69173;BME280;56280;49.662;8.408;2023-03-15T01:09:03;100504.38;;;3.31;76.44
69173;BME280;56280;49.662;8.408;2023-03-15T01:11:29;100527.31;;;3.27;76.52
69173;BME280;56280;49.662;8.408;2023-03-15T01:13:57;100522.84;;;3.29;76.56
69173;BME280;56280;49.662;8.408;2023-03-15T01:16:23;100529.72;;;3.15;77.06
69173;BME280;56280;49.662;8.408;2023-03-15T01:18:49;100518.75;;;3.06;77.37
69173;BME280;56280;49.662;8.408;2023-03-15T01:21:16;100520.53;;;3.41;76.65
69173;BME280;56280;49.662;8.408;2023-03-15T01:23:41;100503.16;;;3.38;76.31
69173;BME280;56280;49.662;8.408;2023-03-15T01:26:10;100533.09;;;3.69;75.53
69173;BME280;56280;49.662;8.408;2023-03-15T01:28:36;100522.53;;;3.18;76.08
69173;BME280;56280;49.662;8.408;2023-03-15T01:31:01;100526.41;;;3.28;75.71
69173;BME280;56280;49.662;8.408;2023-03-15T01:33:27;100539.53;;;3.28;76.31
69173;BME280;56280;49.662;8.408;2023-03-15T01:36:04;100554.88;;;3.19;76.92
69173;BME280;56280;49.662;8.408;2023-03-15T01:38:30;100551.47;;;3.17;76.83
69173;BME280;56280;49.662;8.408;2023-03-15T01:40:56;100553.63;;;3.08;77.98
69173;BME280;56280;49.662;8.408;2023-03-15T01:43:23;100536.91;;;3.11;76.78
69173;BME280;56280;49.662;8.408;2023-03-15T01:54:03;100539.59;;;3.44;75.20
69173;BME280;56280;49.662;8.408;2023-03-15T01:56:31;100556.53;;;3.39;75.46
69173;BME280;56280;49.662;8.408;2023-03-15T01:58:58;100555.50;;;3.06;77.03
69173;BME280;56280;49.662;8.408;2023-03-15T02:01:25;100532.41;;;2.77;78.05
69173;BME280;56280;49.662;8.408;2023-03-15T02:03:58;100548.28;;;2.92;77.00
69173;BME280;56280;49.662;8.408;2023-03-15T02:06:26;100547.31;;;2.76;77.98
69173;BME280;56280;49.662;8.408;2023-03-15T02:08:56;100568.06;;;3.00;77.63
69173;BME280;56280;49.662;8.408;2023-03-15T02:11:24;100497.38;;;2.78;76.69
69173;BME280;56280;49.662;8.408;2023-03-15T02:13:50;100533.66;;;2.69;78.07
69173;BME280;56280;49.662;8.408;2023-03-15T02:16:17;100555.81;;;2.81;77.35
69173;BME280;56280;49.662;8.408;2023-03-15T02:18:45;100549.03;;;2.95;77.29
69173;BME280;56280;49.662;8.408;2023-03-15T02:24:24;100572.84;;;2.72;78.69
69173;BME280;56280;49.662;8.408;2023-03-15T02:26:54;100558.56;;;2.78;78.32
69173;BME280;56280;49.662;8.408;2023-03-15T02:29:22;100551.13;;;2.88;77.26
69173;BME280;56280;49.662;8.408;2023-03-15T02:31:51;100549.75;;;2.62;77.57
69173;BME280;56280;49.662;8.408;2023-03-15T02:34:16;100572.16;;;2.69;78.88
69173;BME280;56280;49.662;8.408;2023-03-15T02:36:41;100549.66;;;2.63;78.55
69173;BME280;56280;49.662;8.408;2023-03-15T02:39:18;100575.25;;;2.77;78.07
69173;BME280;56280;49.662;8.408;2023-03-15T02:41:49;100581.03;;;2.27;79.87
69173;BME280;56280;49.662;8.408;2023-03-15T02:44:26;100585.53;;;2.04;81.60
69173;BME280;56280;49.662;8.408;2023-03-15T02:46:56;100592.81;;;2.18;81.12
69173;BME280;56280;49.662;8.408;2023-03-15T02:49:24;100594.97;;;2.08;81.40
69173;BME280;56280;49.662;8.408;2023-03-15T02:51:51;100593.25;;;2.28;80.34
69173;BME280;56280;49.662;8.408;2023-03-15T02:54:17;100589.34;;;2.17;80.39
69173;BME280;56280;49.662;8.408;2023-03-15T02:56:42;100596.66;;;1.90;81.67
69173;BME280;56280;49.662;8.408;2023-03-15T02:59:07;100608.72;;;2.13;82.12
69173;BME280;56280;49.662;8.408;2023-03-15T03:01:32;100613.63;;;2.21;80.99
69173;BME280;56280;49.662;8.408;2023-03-15T03:04:01;100598.13;;;2.16;81.02
69173;BME280;56280;49.662;8.408;2023-03-15T03:06:26;100605.50;;;2.46;79.81
69173;BME280;56280;49.662;8.408;2023-03-15T03:08:51;100614.44;;;2.42;80.39
69173;BME280;56280;49.662;8.408;2023-03-15T03:11:17;100605.34;;;1.91;81.09
69173;BME280;56280;49.662;8.408;2023-03-15T03:13:42;100642.25;;;1.64;83.30
69173;BME280;56280;49.662;8.408;2023-03-15T03:16:08;100627.28;;;1.88;82.70
69173;BME280;56280;49.662;8.408;2023-03-15T03:18:34;100610.44;;;1.73;82.37
69173;BME280;56280;49.662;8.408;2023-03-15T03:21:01;100637.66;;;1.49;84.71
69173;BME280;56280;49.662;8.408;2023-03-15T03:23:27;100643.19;;;1.63;84.92
69173;BME280;56280;49.662;8.408;2023-03-15T03:25:54;100622.47;;;1.98;82.56
69173;BME280;56280;49.662;8.408;2023-03-15T03:28:21;100638.00;;;2.23;82.19
69173;BME280;56280;49.662;8.408;2023-03-15T03:30:48;100644.91;;;2.26;81.52
69173;BME280;56280;49.662;8.408;2023-03-15T03:33:14;100634.50;;;2.62;79.23
69173;BME280;56280;49.662;8.408;2023-03-15T03:35:39;100617.50;;;2.52;79.02
69173;BME280;56280;49.662;8.408;2023-03-15T03:38:06;100646.16;;;2.57;78.97
69173;BME280;56280;49.662;8.408;2023-03-15T03:40:31;100624.09;;;2.42;78.94
69173;BME280;56280;49.662;8.408;2023-03-15T03:42:56;100637.88;;;2.26;79.91
69173;BME280;56280;49.662;8.408;2023-03-15T03:45:22;100622.19;;;2.45;79.02
69173;BME280;56280;49.662;8.408;2023-03-15T03:47:47;100617.22;;;2.39;78.62
69173;BME280;56280;49.662;8.408;2023-03-15T03:50:12;100618.41;;;2.32;78.61
69173;BME280;56280;49.662;8.408;2023-03-15T03:52:37;100647.44;;;2.27;79.50
69173;BME280;56280;49.662;8.408;2023-03-15T03:55:03;100664.94;;;2.27;80.01
69173;BME280;56280;49.662;8.408;2023-03-15T03:57:28;100634.09;;;1.72;80.38
69173;BME280;56280;49.662;8.408;2023-03-15T03:59:53;100656.09;;;1.68;82.58
69173;BME280;56280;49.662;8.408;2023-03-15T04:02:19;100654.63;;;1.38;84.36
69173;BME280;56280;49.662;8.408;2023-03-15T04:04:44;100657.53;;;1.75;83.03
69173;BME280;56280;49.662;8.408;2023-03-15T04:07:09;100634.69;;;1.58;83.50
69173;BME280;56280;49.662;8.408;2023-03-15T04:09:35;100653.81;;;2.01;82.20
69173;BME280;56280;49.662;8.408;2023-03-15T04:12:01;100655.69;;;1.77;82.27
69173;BME280;56280;49.662;8.408;2023-03-15T04:14:27;100658.66;;;1.69;82.81
69173;BME280;56280;49.662;8.408;2023-03-15T04:16:53;100647.53;;;1.85;82.23
69173;BME280;56280;49.662;8.408;2023-03-15T04:19:18;100657.25;;;2.22;81.11
69173;BME280;56280;49.662;8.408;2023-03-15T04:21:44;100659.50;;;2.11;81.25
69173;BME280;56280;49.662;8.408;2023-03-15T04:24:11;100679.88;;;2.25;80.73
69173;BME280;56280;49.662;8.408;2023-03-15T04:26:37;100625.38;;;2.12;79.38
69173;BME280;56280;49.662;8.408;2023-03-15T04:29:03;100679.03;;;2.64;78.51
69173;BME280;56280;49.662;8.408;2023-03-15T04:31:28;100644.50;;;2.54;77.76
69173;BME280;56280;49.662;8.408;2023-03-15T04:33:54;100666.00;;;2.23;78.31
69173;BME280;56280;49.662;8.408;2023-03-15T04:36:22;100693.50;;;2.33;78.48
69173;BME280;56280;49.662;8.408;2023-03-15T04:38:48;100670.38;;;2.22;78.58
69173;BME280;56280;49.662;8.408;2023-03-15T04:41:15;100662.31;;;2.27;78.46
69173;BME280;56280;49.662;8.408;2023-03-15T04:43:41;100698.38;;;2.22;78.68
69173;BME280;56280;49.662;8.408;2023-03-15T04:46:07;100671.94;;;1.85;79.78
69173;BME280;56280;49.662;8.408;2023-03-15T04:48:33;100706.63;;;2.33;79.36
69173;BME280;56280;49.662;8.408;2023-03-15T04:50:58;100690.88;;;2.53;78.46
69173;BME280;56280;49.662;8.408;2023-03-15T04:53:23;100680.81;;;2.63;77.64
69173;BME280;56280;49.662;8.408;2023-03-15T04:55:49;100653.59;;;2.26;77.81
69173;BME280;56280;49.662;8.408;2023-03-15T04:58:14;100678.91;;;2.07;78.83
69173;BME280;56280;49.662;8.408;2023-03-15T05:00:40;100690.56;;;2.41;78.31
69173;BME280;56280;49.662;8.408;2023-03-15T05:03:05;100694.13;;;2.19;79.24
69173;BME280;56280;49.662;8.408;2023-03-15T05:05:32;100674.00;;;1.99;79.64
69173;BME280;56280;49.662;8.408;2023-03-15T05:07:57;100703.34;;;2.28;78.83
69173;BME280;56280;49.662;8.408;2023-03-15T05:10:22;100688.59;;;2.25;78.70
69173;BME280;56280;49.662;8.408;2023-03-15T05:12:49;100702.88;;;1.97;79.79
69173;BME280;56280;49.662;8.408;2023-03-15T05:15:15;100656.94;;;1.68;81.07
69173;BME280;56280;49.662;8.408;2023-03-15T05:17:40;100700.97;;;1.80;80.56
69173;BME280;56280;49.662;8.408;2023-03-15T05:20:06;100681.69;;;1.81;81.10
69173;BME280;56280;49.662;8.408;2023-03-15T05:22:37;100687.63;;;2.28;79.73
69173;BME280;56280;49.662;8.408;2023-03-15T05:25:02;100707.13;;;2.62;77.76
69173;BME280;56280;49.662;8.408;2023-03-15T05:27:28;100669.28;;;2.07;79.11
69173;BME280;56280;49.662;8.408;2023-03-15T05:29:53;100711.53;;;2.20;79.69
69173;BME280;56280;49.662;8.408;2023-03-15T05:32:19;100708.66;;;2.26;79.69
69173;BME280;56280;49.662;8.408;2023-03-15T05:34:52;100712.31;;;2.43;78.58
69173;BME280;56280;49.662;8.408;2023-03-15T05:37:22;100714.03;;;2.44;78.96
69173;BME280;56280;49.662;8.408;2023-03-15T05:39:47;100723.38;;;2.49;79.07
69173;BME280;56280;49.662;8.408;2023-03-15T05:42:13;100707.25;;;2.38;78.68
69173;BME280;56280;49.662;8.408;2023-03-15T05:44:39;100704.94;;;2.71;78.50
69173;BME280;56280;49.662;8.408;2023-03-15T05:47:04;100715.31;;;2.94;77.44
69173;BME280;56280;49.662;8.408;2023-03-15T05:49:29;100690.03;;;2.72;78.15
69173;BME280;56280;49.662;8.408;2023-03-15T05:51:55;100718.56;;;2.99;77.02
69173;BME280;56280;49.662;8.408;2023-03-15T05:54:20;100706.81;;;2.88;77.30
69173;BME280;56280;49.662;8.408;2023-03-15T05:56:45;100707.63;;;2.70;76.93
69173;BME280;56280;49.662;8.408;2023-03-15T05:59:10;100714.16;;;2.99;77.23
69173;BME280;56280;49.662;8.408;2023-03-15T06:01:36;100722.13;;;2.98;77.86
69173;BME280;56280;49.662;8.408;2023-03-15T06:04:01;100733.84;;;3.09;76.42
69173;BME280;56280;49.662;8.408;2023-03-15T06:06:26;100733.47;;;2.98;77.28
69173;BME280;56280;49.662;8.408;2023-03-15T06:08:52;100745.16;;;2.91;77.51
69173;BME280;56280;49.662;8.408;2023-03-15T06:11:17;100731.97;;;2.92;77.15
69173;BME280;56280;49.662;8.408;2023-03-15T06:13:42;100742.38;;;2.75;77.43
69173;BME280;56280;49.662;8.408;2023-03-15T06:16:07;100752.28;;;2.68;77.50
69173;BME280;56280;49.662;8.408;2023-03-15T06:18:33;100748.72;;;3.09;76.85
69173;BME280;56280;49.662;8.408;2023-03-15T06:20:58;100740.22;;;3.04;76.52
69173;BME280;56280;49.662;8.408;2023-03-15T06:23:23;100760.50;;;3.00;77.25
69173;BME280;56280;49.662;8.408;2023-03-15T06:25:49;100763.22;;;3.18;77.06
69173;BME280;56280;49.662;8.408;2023-03-15T06:28:14;100770.03;;;3.03;75.72
69173;BME280;56280;49.662;8.408;2023-03-15T06:30:39;100772.31;;;2.71;77.24
69173;BME280;56280;49.662;8.408;2023-03-15T06:33:05;100781.19;;;2.87;77.45
69173;BME280;56280;49.662;8.408;2023-03-15T06:35:30;100773.16;;;3.11;76.88
69173;BME280;56280;49.662;8.408;2023-03-15T06:37:56;100786.63;;;3.03;76.44
69173;BME280;56280;49.662;8.408;2023-03-15T06:40:21;100783.53;;;3.14;77.12
69173;BME280;56280;49.662;8.408;2023-03-15T06:42:46;100759.53;;;3.03;76.80
69173;BME280;56280;49.662;8.408;2023-03-15T06:45:12;100778.53;;;3.08;76.60
69173;BME280;56280;49.662;8.408;2023-03-15T06:47:37;100780.09;;;3.31;77.05
69173;BME280;56280;49.662;8.408;2023-03-15T06:50:03;100755.28;;;2.80;77.63
69173;BME280;56280;49.662;8.408;2023-03-15T06:52:29;100787.31;;;3.07;77.72
69173;BME280;56280;49.662;8.408;2023-03-15T06:54:54;100794.97;;;2.92;77.65
69173;BME280;56280;49.662;8.408;2023-03-15T06:57:19;100803.72;;;2.72;78.94
69173;BME280;56280;49.662;8.408;2023-03-15T06:59:44;100775.78;;;2.51;78.90
69173;BME280;56280;49.662;8.408;2023-03-15T07:02:15;100801.28;;;2.68;78.83
69173;BME280;56280;49.662;8.408;2023-03-15T07:04:41;100826.13;;;2.80;79.24
69173;BME280;56280;49.662;8.408;2023-03-15T07:07:08;100789.97;;;2.86;77.64
69173;BME280;56280;49.662;8.408;2023-03-15T07:09:34;100818.44;;;2.96;77.35
69173;BME280;56280;49.662;8.408;2023-03-15T07:11:59;100811.22;;;3.01;77.68
69173;BME280;56280;49.662;8.408;2023-03-15T07:14:25;100793.56;;;2.65;78.75
69173;BME280;56280;49.662;8.408;2023-03-15T07:16:53;100787.34;;;2.86;78.32
69173;BME280;56280;49.662;8.408;2023-03-15T07:19:18;100816.97;;;3.09;78.91
69173;BME280;56280;49.662;8.408;2023-03-15T07:21:44;100781.59;;;2.78;78.84
69173;BME280;56280;49.662;8.408;2023-03-15T07:24:09;100796.28;;;3.03;78.57
69173;BME280;56280;49.662;8.408;2023-03-15T07:26:37;100798.53;;;2.91;79.69
69173;BME280;56280;49.662;8.408;2023-03-15T07:29:02;100810.19;;;3.05;80.15
69173;BME280;56280;49.662;8.408;2023-03-15T07:31:28;100818.31;;;2.78;81.75
69173;BME280;56280;49.662;8.408;2023-03-15T07:33:53;100792.41;;;2.91;81.06
69173;BME280;56280;49.662;8.408;2023-03-15T07:36:18;100801.34;;;2.87;81.25
69173;BME280;56280;49.662;8.408;2023-03-15T07:38:43;100803.84;;;3.09;80.57
69173;BME280;56280;49.662;8.408;2023-03-15T07:41:09;100801.47;;;3.04;80.36
69173;BME280;56280;49.662;8.408;2023-03-15T07:43:35;100835.28;;;3.10;81.69
69173;BME280;56280;49.662;8.408;2023-03-15T07:46:00;100823.94;;;3.10;81.39
69173;BME280;56280;49.662;8.408;2023-03-15T07:48:26;100820.19;;;3.35;81.05
69173;BME280;56280;49.662;8.408;2023-03-15T07:50:53;100817.91;;;3.08;81.13
69173;BME280;56280;49.662;8.408;2023-03-15T07:53:18;100813.91;;;2.99;81.51
69173;BME280;56280;49.662;8.408;2023-03-15T07:55:46;100843.59;;;3.20;82.04
69173;BME280;56280;49.662;8.408;2023-03-15T07:58:11;100812.75;;;3.25;81.40
69173;BME280;56280;49.662;8.408;2023-03-15T08:00:37;100851.13;;;3.68;80.22
69173;BME280;56280;49.662;8.408;2023-03-15T08:03:02;100836.91;;;3.53;79.58
69173;BME280;56280;49.662;8.408;2023-03-15T08:05:28;100813.47;;;3.29;79.96
69173;BME280;56280;49.662;8.408;2023-03-15T08:07:53;100831.06;;;3.46;79.79
69173;BME280;56280;49.662;8.408;2023-03-15T08:10:19;100827.78;;;3.22;80.93
69173;BME280;56280;49.662;8.408;2023-03-15T08:12:44;100856.97;;;3.35;80.94
69173;BME280;56280;49.662;8.408;2023-03-15T08:15:11;100861.34;;;3.55;81.43
69173;BME280;56280;49.662;8.408;2023-03-15T08:17:37;100860.31;;;3.57;81.07
69173;BME280;56280;49.662;8.408;2023-03-15T08:20:03;100854.34;;;2.95;83.23
69173;BME280;56280;49.662;8.408;2023-03-15T08:22:30;100862.28;;;3.33;82.84
69173;BME280;56280;49.662;8.408;2023-03-15T08:24:55;100850.75;;;3.56;81.85
69173;BME280;56280;49.662;8.408;2023-03-15T08:27:22;100863.59;;;3.43;82.09
69173;BME280;56280;49.662;8.408;2023-03-15T08:29:47;100851.34;;;3.04;83.68
69173;BME280;56280;49.662;8.408;2023-03-15T08:32:13;100874.56;;;3.33;84.17
69173;BME280;56280;49.662;8.408;2023-03-15T08:34:40;100840.66;;;3.07;85.01
69173;BME280;56280;49.662;8.408;2023-03-15T08:37:06;100849.75;;;2.80;86.45
69173;BME280;56280;49.662;8.408;2023-03-15T08:39:31;100853.88;;;2.65;87.53
69173;BME280;56280;49.662;8.408;2023-03-15T08:41:56;100865.50;;;2.80;87.40
69173;BME280;56280;49.662;8.408;2023-03-15T08:44:22;100877.00;;;2.77;88.51
69173;BME280;56280;49.662;8.408;2023-03-15T08:46:47;100868.56;;;2.48;89.35
69173;BME280;56280;49.662;8.408;2023-03-15T08:49:12;100874.13;;;2.41;90.12
69173;BME280;56280;49.662;8.408;2023-03-15T08:51:38;100883.66;;;2.84;90.93
69173;BME280;56280;49.662;8.408;2023-03-15T08:54:03;100862.81;;;2.81;90.69
69173;BME280;56280;49.662;8.408;2023-03-15T08:56:29;100875.41;;;2.73;91.17
69173;BME280;56280;49.662;8.408;2023-03-15T08:58:56;100866.16;;;2.85;91.41
69173;BME280;56280;49.662;8.408;2023-03-15T09:01:21;100888.78;;;3.47;90.28
69173;BME280;56280;49.662;8.408;2023-03-15T09:03:47;100889.38;;;3.73;89.80
69173;BME280;56280;49.662;8.408;2023-03-15T09:06:13;100868.91;;;3.80;89.07
69173;BME280;56280;49.662;8.408;2023-03-15T09:08:38;100871.13;;;3.70;88.88
69173;BME280;56280;49.662;8.408;2023-03-15T09:11:03;100896.69;;;4.05;88.90
69173;BME280;56280;49.662;8.408;2023-03-15T09:13:29;100902.25;;;3.98;88.26
69173;BME280;56280;49.662;8.408;2023-03-15T09:15:56;100906.38;;;3.66;88.36
69173;BME280;56280;49.662;8.408;2023-03-15T09:18:22;100907.63;;;3.95;88.80
69173;BME280;56280;49.662;8.408;2023-03-15T09:20:48;100907.06;;;3.89;89.62
69173;BME280;56280;49.662;8.408;2023-03-15T09:23:13;100888.81;;;3.86;88.79
69173;BME280;56280;49.662;8.408;2023-03-15T09:25:39;100905.78;;;4.16;87.47
69173;BME280;56280;49.662;8.408;2023-03-15T09:28:06;100868.97;;;3.97;87.61
69173;BME280;56280;49.662;8.408;2023-03-15T09:30:33;100895.03;;;4.21;86.96
69173;BME280;56280;49.662;8.408;2023-03-15T09:32:59;100897.66;;;4.21;87.56
69173;BME280;56280;49.662;8.408;2023-03-15T09:35:25;100920.72;;;4.52;87.29
69173;BME280;56280;49.662;8.408;2023-03-15T09:37:50;100927.78;;;4.33;86.95
69173;BME280;56280;49.662;8.408;2023-03-15T09:40:25;100924.78;;;4.41;86.89
69173;BME280;56280;49.662;8.408;2023-03-15T09:45:59;100929.34;;;4.73;85.62
69173;BME280;56280;49.662;8.408;2023-03-15T09:48:32;100917.97;;;4.90;84.75
69173;BME280;56280;49.662;8.408;2023-03-15T09:51:15;100928.59;;;4.35;84.45
69173;BME280;56280;49.662;8.408;2023-03-15T09:53:58;100950.28;;;4.57;86.02
69173;BME280;56280;49.662;8.408;2023-03-15T09:56:34;100943.81;;;4.82;85.35
69173;BME280;56280;49.662;8.408;2023-03-15T09:59:02;100939.78;;;4.92;85.10
69173;BME280;56280;49.662;8.408;2023-03-15T10:01:38;100943.75;;;5.36;84.02
69173;BME280;56280;49.662;8.408;2023-03-15T10:04:12;100917.03;;;5.09;83.70
69173;BME280;56280;49.662;8.408;2023-03-15T10:06:42;100940.16;;;5.71;83.22
69173;BME280;56280;49.662;8.408;2023-03-15T10:09:14;100948.56;;;5.61;82.06
69173;BME280;56280;49.662;8.408;2023-03-15T10:11:48;100917.97;;;5.08;81.73
69173;BME280;56280;49.662;8.408;2023-03-15T10:17:26;100941.84;;;6.05;80.82
69173;BME280;56280;49.662;8.408;2023-03-15T10:19:58;100931.09;;;5.92;80.34
69173;BME280;56280;49.662;8.408;2023-03-15T10:22:42;100945.03;;;6.12;79.03
69173;BME280;56280;49.662;8.408;2023-03-15T10:25:27;100944.31;;;6.40;78.11
69173;BME280;56280;49.662;8.408;2023-03-15T10:28:03;100937.34;;;6.39;78.53
69173;BME280;56280;49.662;8.408;2023-03-15T10:30:34;100941.00;;;6.05;77.65
69173;BME280;56280;49.662;8.408;2023-03-15T10:33:17;100947.81;;;6.25;76.50
69173;BME280;56280;49.662;8.408;2023-03-15T10:35:47;100946.59;;;6.62;77.40
69173;BME280;56280;49.662;8.408;2023-03-15T10:38:18;100957.47;;;6.88;77.22
69173;BME280;56280;49.662;8.408;2023-03-15T10:40:50;100939.09;;;6.70;76.63
69173;BME280;56280;49.662;8.408;2023-03-15T10:43:26;100949.53;;;6.88;76.98
69173;BME280;56280;49.662;8.408;2023-03-15T10:46:10;100945.50;;;6.50;77.08
69173;BME280;56280;49.662;8.408;2023-03-15T10:48:59;100941.06;;;6.67;77.20
69173;BME280;56280;49.662;8.408;2023-03-15T10:51:31;100927.97;;;6.96;75.88
69173;BME280;56280;49.662;8.408;2023-03-15T10:53:59;100939.81;;;6.88;75.08
69173;BME280;56280;49.662;8.408;2023-03-15T10:56:28;100920.47;;;6.88;73.53
69173;BME280;56280;49.662;8.408;2023-03-15T10:58:56;100934.53;;;7.33;74.06
69173;BME280;56280;49.662;8.408;2023-03-15T11:01:27;100928.41;;;7.47;74.50
69173;BME280;56280;49.662;8.408;2023-03-15T11:04:12;100934.28;;;7.81;74.72
69173;BME280;56280;49.662;8.408;2023-03-15T11:09:12;100923.78;;;7.94;70.29
69173;BME280;56280;49.662;8.408;2023-03-15T11:12:08;100930.66;;;7.96;71.61
69173;BME280;56280;49.662;8.408;2023-03-15T11:14:43;100933.72;;;8.17;70.88
69173;BME280;56280;49.662;8.408;2023-03-15T11:17:24;100928.09;;;8.36;70.42
69173;BME280;56280;49.662;8.408;2023-03-15T11:19:54;100921.44;;;8.58;69.25
69173;BME280;56280;49.662;8.408;2023-03-15T11:22:21;100911.03;;;8.95;68.13
69173;BME280;56280;49.662;8.408;2023-03-15T11:24:46;100886.16;;;8.57;68.28
69173;BME280;56280;49.662;8.408;2023-03-15T11:27:14;100910.78;;;8.45;67.58
69173;BME280;56280;49.662;8.408;2023-03-15T11:29:43;100920.09;;;8.65;67.60
69173;BME280;56280;49.662;8.408;2023-03-15T11:32:15;100912.25;;;8.64;66.17
69173;BME280;56280;49.662;8.408;2023-03-15T11:34:56;100926.09;;;8.40;66.53
69173;BME280;56280;49.662;8.408;2023-03-15T11:37:28;100930.19;;;8.46;65.99
69173;BME280;56280;49.662;8.408;2023-03-15T11:42:53;100931.97;;;8.45;66.10
69173;BME280;56280;49.662;8.408;2023-03-15T11:45:34;100930.44;;;8.55;66.07
69173;BME280;56280;49.662;8.408;2023-03-15T11:48:10;100926.97;;;8.55;64.76
69173;BME280;56280;49.662;8.408;2023-03-15T11:50:38;100918.78;;;8.58;66.06
69173;BME280;56280;49.662;8.408;2023-03-15T11:53:04;100918.34;;;8.51;65.63
69173;BME280;56280;49.662;8.408;2023-03-15T11:55:31;100931.50;;;8.38;64.45
69173;BME280;56280;49.662;8.408;2023-03-15T11:58:30;100944.22;;;8.19;65.93
69173;BME280;56280;49.662;8.408;2023-03-15T12:01:23;100942.69;;;8.44;64.93
69173;BME280;56280;49.662;8.408;2023-03-15T12:06:56;100949.88;;;8.69;66.01
69173;BME280;56280;49.662;8.408;2023-03-15T12:11:58;100919.53;;;8.33;66.32
69173;BME280;56280;49.662;8.408;2023-03-15T12:17:33;100912.72;;;8.29;66.84
69173;BME280;56280;49.662;8.408;2023-03-15T12:19:41;100930.19;;;8.46;66.31
69173;BME280;56280;49.662;8.408;2023-03-15T12:22:14;100947.78;;;8.87;66.48
69173;BME280;56280;49.662;8.408;2023-03-15T12:24:43;100935.44;;;9.00;66.09
69173;BME280;56280;49.662;8.408;2023-03-15T12:29:37;100948.94;;;9.23;63.67
69173;BME280;56280;49.662;8.408;2023-03-15T12:34:48;100932.63;;;9.16;62.61
69173;BME280;56280;49.662;8.408;2023-03-15T12:37:17;100961.81;;;9.55;60.44
69173;BME280;56280;49.662;8.408;2023-03-15T12:58:45;100960.16;;;9.13;61.52
69173;BME280;56280;49.662;8.408;2023-03-15T13:01:13;100955.59;;;9.16;61.16
69173;BME280;56280;49.662;8.408;2023-03-15T13:03:41;100926.56;;;9.27;60.75
69173;BME280;56280;49.662;8.408;2023-03-15T13:06:29;100943.34;;;9.66;57.63
69173;BME280;56280;49.662;8.408;2023-03-15T13:09:27;100901.53;;;9.57;58.63
69173;BME280;56280;49.662;8.408;2023-03-15T13:12:07;100894.31;;;9.59;57.84
69173;BME280;56280;49.662;8.408;2023-03-15T13:14:55;100962.19;;;9.23;64.25
69173;BME280;56280;49.662;8.408;2023-03-15T13:17:50;100983.91;;;6.40;73.35
69173;BME280;56280;49.662;8.408;2023-03-15T13:23:02;100944.09;;;5.79;78.13
69173;BME280;56280;49.662;8.408;2023-03-15T13:31:19;100961.94;;;5.74;81.82
69173;BME280;56280;49.662;8.408;2023-03-15T13:33:52;100951.63;;;6.03;80.36
69173;BME280;56280;49.662;8.408;2023-03-15T13:36:24;100959.38;;;6.06;76.90
69173;BME280;56280;49.662;8.408;2023-03-15T13:38:53;100949.69;;;6.23;77.41
69173;BME280;56280;49.662;8.408;2023-03-15T13:41:28;100950.25;;;6.60;75.87
69173;BME280;56280;49.662;8.408;2023-03-15T13:43:56;100966.97;;;7.21;72.95
69173;BME280;56280;49.662;8.408;2023-03-15T13:46:24;100963.94;;;7.57;70.71
69173;BME280;56280;49.662;8.408;2023-03-15T13:48:52;100959.38;;;7.59;69.43
69173;BME280;56280;49.662;8.408;2023-03-15T13:51:34;100979.56;;;7.01;71.64
69173;BME280;56280;49.662;8.408;2023-03-15T13:57:12;100978.00;;;6.03;72.25
69173;BME280;56280;49.662;8.408;2023-03-15T13:59:44;100955.47;;;5.64;72.89
69173;BME280;56280;49.662;8.408;2023-03-15T14:02:17;100974.41;;;5.88;75.64
69173;BME280;56280;49.662;8.408;2023-03-15T14:04:50;100969.44;;;5.82;72.98
69173;BME280;56280;49.662;8.408;2023-03-15T14:07:28;100944.56;;;6.03;70.60
69173;BME280;56280;49.662;8.408;2023-03-15T14:10:36;100978.88;;;6.19;72.22
69173;BME280;56280;49.662;8.408;2023-03-15T14:13:23;100937.59;;;5.36;68.07